createdAt,value
2024-05-09T00:01:58.115Z,3.55
2024-05-09T00:04:28.013Z,3.33
2024-05-09T00:06:57.847Z,2.95
2024-05-09T00:09:30.227Z,3.17
2024-05-09T00:12:00.283Z,3.13
2024-05-09T00:14:30.357Z,2.90
2024-05-09T00:17:00.323Z,3.20
2024-05-09T00:19:30.346Z,2.60
2024-05-09T00:22:00.205Z,2.50
2024-05-09T00:24:32.749Z,3.08
2024-05-09T00:27:02.565Z,3.10
2024-05-09T00:29:32.479Z,3.05
2024-05-09T00:32:02.449Z,2.70
2024-05-09T00:34:32.433Z,2.90
2024-05-09T00:37:02.496Z,2.80
2024-05-09T00:39:35.100Z,3.00
2024-05-09T00:42:04.911Z,3.08
2024-05-09T00:44:34.820Z,2.92
2024-05-09T00:47:05.207Z,3.15
2024-05-09T00:49:36.242Z,3.20
2024-05-09T00:52:06.792Z,3.88
2024-05-09T00:54:39.417Z,3.42
2024-05-09T00:57:09.241Z,3.20
2024-05-09T00:59:39.137Z,3.88
2024-05-09T01:02:09.502Z,3.80
2024-05-09T01:04:39.468Z,3.60
2024-05-09T01:07:09.720Z,4.20
2024-05-09T01:09:42.506Z,3.75
2024-05-09T01:12:12.451Z,3.75
2024-05-09T01:14:42.339Z,3.90
2024-05-09T01:17:12.474Z,4.50
2024-05-09T01:19:42.694Z,4.30
2024-05-09T01:22:12.751Z,4.60
2024-05-09T01:24:45.174Z,5.00
2024-05-09T01:27:15.029Z,4.30
2024-05-09T01:29:44.887Z,4.07
2024-05-09T01:32:14.852Z,4.00
2024-05-09T01:34:44.846Z,3.95
2024-05-09T01:37:15.766Z,3.22
2024-05-09T01:39:48.199Z,3.00
2024-05-09T01:42:18.729Z,3.15
2024-05-09T01:44:48.585Z,3.08
2024-05-09T01:47:18.488Z,2.85
2024-05-09T01:49:48.410Z,2.63
2024-05-09T01:52:18.225Z,2.50
2024-05-09T01:54:50.669Z,2.60
2024-05-09T01:57:20.579Z,2.80
2024-05-09T01:59:50.434Z,2.63
2024-05-09T02:02:20.393Z,2.70
2024-05-09T02:04:50.463Z,2.85
2024-05-09T02:07:20.743Z,2.97
2024-05-09T02:09:54.388Z,3.35
2024-05-09T02:12:24.280Z,3.55
2024-05-09T02:14:54.661Z,3.40
2024-05-09T02:17:24.603Z,3.22
2024-05-09T02:19:54.555Z,3.25
2024-05-09T02:22:24.391Z,2.92
2024-05-09T02:24:56.933Z,2.60
2024-05-09T02:27:26.764Z,2.55
2024-05-09T02:29:56.794Z,2.67
2024-05-09T02:32:26.716Z,2.88
2024-05-09T02:34:56.744Z,2.20
2024-05-09T02:37:23.988Z,2.30
2024-05-09T02:39:56.661Z,2.13
2024-05-09T02:42:23.879Z,2.38
2024-05-09T02:44:53.686Z,2.60
2024-05-09T02:47:21.037Z,2.15
2024-05-09T02:49:51.024Z,2.20
2024-05-09T02:52:18.927Z,2.30
2024-05-09T02:54:48.772Z,2.08
2024-05-09T02:57:18.568Z,2.20
2024-05-09T02:59:48.409Z,2.22
2024-05-09T03:02:15.679Z,2.22
2024-05-09T03:04:45.806Z,2.53
2024-05-09T03:07:13.095Z,2.17
2024-05-09T03:09:42.899Z,2.45
2024-05-09T03:12:10.282Z,1.90
2024-05-09T03:14:42.850Z,2.20
2024-05-09T03:17:10.129Z,2.20
2024-05-09T03:19:40.129Z,2.20
2024-05-09T03:22:07.316Z,2.20
2024-05-09T03:24:37.224Z,1.88
2024-05-09T03:27:04.685Z,2.25
2024-05-09T03:29:34.570Z,1.70
2024-05-09T03:32:05.277Z,1.80
2024-05-09T03:34:35.147Z,1.48
2024-05-09T03:37:05.040Z,1.92
2024-05-09T03:39:34.890Z,1.80
2024-05-09T03:42:04.619Z,1.60
2024-05-09T03:44:34.456Z,1.85
2024-05-09T03:47:07.324Z,2.00
2024-05-09T03:49:34.674Z,1.75
2024-05-09T03:52:05.463Z,1.77
2024-05-09T03:54:34.761Z,2.10
2024-05-09T03:57:04.615Z,1.73
2024-05-09T03:59:31.844Z,1.83
2024-05-09T04:02:01.672Z,1.70
2024-05-09T04:04:31.567Z,1.83
2024-05-09T04:07:01.513Z,1.70
2024-05-09T04:09:28.804Z,1.75
2024-05-09T04:11:58.706Z,2.30
2024-05-09T04:14:26.115Z,1.60
2024-05-09T04:16:56.039Z,2.35
2024-05-09T04:19:23.384Z,2.33
2024-05-09T04:21:55.873Z,2.08
2024-05-09T04:24:23.117Z,2.10
2024-05-09T04:26:52.863Z,1.75
2024-05-09T04:29:20.118Z,2.00
2024-05-09T04:31:49.941Z,1.85
2024-05-09T04:34:17.287Z,1.75
2024-05-09T04:36:47.212Z,1.83
2024-05-09T04:39:16.970Z,1.67
2024-05-09T04:41:47.048Z,1.88
2024-05-09T04:44:14.243Z,1.75
2024-05-09T04:46:44.093Z,1.40
2024-05-09T04:49:11.387Z,1.63
2024-05-09T04:51:41.311Z,2.45
2024-05-09T04:54:10.832Z,1.85
2024-05-09T04:56:48.217Z,1.95
2024-05-09T04:59:15.452Z,2.15
2024-05-09T05:01:45.415Z,1.88
2024-05-09T05:04:13.666Z,1.40
2024-05-09T05:06:43.466Z,2.00
2024-05-09T05:09:10.739Z,1.80
2024-05-09T05:11:40.577Z,2.10
2024-05-09T05:14:10.623Z,1.83
2024-05-09T05:16:40.426Z,1.80
2024-05-09T05:19:11.473Z,1.75
2024-05-09T05:21:42.598Z,2.00
2024-05-09T05:24:09.779Z,1.90
2024-05-09T05:26:40.184Z,2.33
2024-05-09T05:29:10.095Z,2.00
2024-05-09T05:31:40.043Z,1.70
2024-05-09T05:34:07.437Z,1.50
2024-05-09T05:36:37.242Z,1.95
2024-05-09T05:39:04.488Z,1.70
2024-05-09T05:41:34.347Z,1.95
2024-05-09T05:44:01.749Z,1.65
2024-05-09T05:46:34.146Z,1.90
2024-05-09T05:49:01.482Z,1.92
2024-05-09T05:51:31.359Z,1.65
2024-05-09T05:53:58.631Z,1.85
2024-05-09T05:56:29.044Z,1.70
2024-05-09T05:58:56.278Z,1.90
2024-05-09T06:01:26.183Z,1.60
2024-05-09T06:03:56.227Z,2.22
2024-05-09T06:06:26.043Z,1.80
2024-05-09T06:08:53.347Z,2.00
2024-05-09T06:11:23.370Z,1.65
2024-05-09T06:13:50.751Z,1.80
2024-05-09T06:16:20.535Z,1.48
2024-05-09T06:18:47.768Z,1.48
2024-05-09T06:21:22.147Z,2.10
2024-05-09T06:23:50.083Z,1.80
2024-05-09T06:26:20.045Z,2.13
2024-05-09T06:28:47.272Z,1.80
2024-05-09T06:31:17.175Z,1.90
2024-05-09T06:33:44.547Z,1.75
2024-05-09T06:36:14.857Z,1.83
2024-05-09T06:38:44.762Z,1.40
2024-05-09T06:41:14.637Z,1.85
2024-05-09T06:43:42.313Z,1.60
2024-05-09T06:46:12.317Z,1.70
2024-05-09T06:48:39.757Z,1.50
2024-05-09T06:51:09.762Z,1.40
2024-05-09T06:53:39.439Z,1.83
2024-05-09T06:56:13.474Z,1.98
2024-05-09T06:58:40.688Z,1.65
2024-05-09T07:01:10.441Z,1.35
2024-05-09T07:03:37.825Z,1.77
2024-05-09T07:06:08.320Z,1.73
2024-05-09T07:08:35.694Z,1.92
2024-05-09T07:11:05.809Z,1.50
2024-05-09T07:13:35.825Z,1.50
2024-05-09T07:16:05.788Z,1.48
2024-05-09T07:18:33.086Z,1.60
2024-05-09T07:21:03.039Z,1.30
2024-05-09T07:23:30.299Z,1.60
2024-05-09T07:26:00.551Z,1.92
2024-05-09T07:28:27.837Z,1.55
2024-05-09T07:31:00.354Z,1.80
2024-05-09T07:33:27.742Z,1.55
2024-05-09T07:35:57.707Z,1.77
2024-05-09T07:38:24.986Z,1.80
2024-05-09T07:40:54.811Z,1.60
2024-05-09T07:43:22.029Z,2.28
2024-05-09T07:45:54.477Z,2.15
2024-05-09T07:50:00.069Z,2.33
2024-05-09T07:53:50.788Z,1.70
2024-05-09T07:56:24.517Z,1.70
2024-05-09T07:58:53.806Z,1.60
2024-05-09T08:01:25.810Z,1.70
2024-05-09T08:03:56.260Z,2.05
2024-05-09T08:06:26.822Z,1.92
2024-05-09T08:08:54.226Z,1.80
2024-05-09T08:11:24.301Z,1.50
2024-05-09T08:13:51.700Z,1.60
2024-05-09T08:16:21.725Z,1.50
2024-05-09T08:18:49.158Z,1.30
2024-05-09T08:21:21.787Z,162.20
2024-05-09T08:23:48.985Z,147.85
2024-05-09T08:26:18.804Z,82.88
2024-05-09T08:28:46.060Z,8.93
2024-05-09T08:31:16.042Z,2.50
2024-05-09T08:33:47.256Z,1.58
2024-05-09T08:36:17.841Z,1.52
2024-05-09T08:38:50.329Z,1.40
2024-05-09T08:41:17.569Z,1.05
2024-05-09T08:43:47.885Z,5.55
2024-05-09T08:46:15.829Z,1.65
2024-05-09T08:48:48.179Z,1.30
2024-05-09T08:51:15.631Z,1.58
2024-05-09T08:53:45.505Z,1.38
2024-05-09T08:56:17.367Z,1.20
2024-05-09T08:58:48.247Z,1.05
2024-05-09T09:01:18.351Z,76.93
2024-05-09T09:03:49.081Z,51.33
2024-05-09T09:06:19.372Z,19.25
2024-05-09T09:08:50.277Z,1.90
2024-05-09T09:11:20.145Z,2.20
2024-05-09T09:13:49.966Z,2.10
2024-05-09T09:16:17.450Z,1.52
2024-05-09T09:18:48.116Z,1.42
2024-05-09T09:21:15.790Z,1.58
2024-05-09T09:23:46.483Z,1.90
2024-05-09T09:26:16.448Z,1.65
2024-05-09T09:28:49.816Z,1.27
2024-05-09T09:31:18.387Z,1.52
2024-05-09T09:33:48.700Z,1.20
2024-05-09T09:36:18.400Z,1.40
2024-05-09T09:38:51.074Z,1.33
2024-05-09T09:41:24.617Z,1.20
2024-05-09T09:43:59.483Z,1.20
2024-05-09T09:46:29.276Z,1.45
2024-05-09T09:48:59.750Z,1.30
2024-05-09T09:51:27.775Z,1.33
2024-05-09T09:53:59.246Z,1.50
2024-05-09T09:56:30.332Z,1.40
2024-05-09T09:59:07.046Z,1.40
2024-05-09T10:01:37.235Z,1.30
2024-05-09T10:04:08.265Z,1.25
2024-05-09T10:06:41.313Z,1.63
2024-05-09T10:09:14.314Z,1.38
2024-05-09T10:11:45.428Z,1.30
2024-05-09T10:14:25.775Z,1.23
2024-05-09T10:16:53.009Z,2.00
2024-05-09T10:19:29.199Z,1.50
2024-05-09T10:22:03.264Z,1.42
2024-05-09T10:24:49.316Z,1.60
2024-05-09T10:27:21.233Z,1.20
2024-05-09T10:29:55.527Z,1.73
2024-05-09T10:32:25.553Z,1.10
2024-05-09T10:35:06.780Z,1.33
2024-05-09T10:37:37.642Z,1.40
2024-05-09T10:40:11.923Z,1.33
2024-05-09T10:42:47.468Z,1.23
2024-05-09T10:45:18.919Z,1.52
2024-05-09T10:47:48.837Z,1.08
2024-05-09T10:50:22.582Z,1.13
2024-05-09T10:52:58.185Z,1.58
2024-05-09T10:55:25.570Z,1.27
2024-05-09T10:57:55.509Z,1.40
2024-05-09T11:00:35.654Z,1.50
2024-05-09T11:03:06.702Z,1.77
2024-05-09T11:05:35.022Z,1.55
2024-05-09T11:08:05.259Z,1.42
2024-05-09T11:10:34.369Z,1.10
2024-05-09T11:13:04.795Z,1.40
2024-05-09T11:15:41.080Z,1.00
2024-05-09T11:18:25.295Z,1.25
2024-05-09T11:20:54.814Z,1.20
2024-05-09T11:23:26.250Z,1.15
2024-05-09T11:25:55.007Z,1.30
2024-05-09T11:28:25.867Z,1.40
2024-05-09T11:31:06.597Z,1.48
2024-05-09T11:33:39.775Z,1.45
2024-05-09T11:36:08.219Z,1.25
2024-05-09T11:38:38.642Z,1.30
2024-05-09T11:41:06.722Z,1.02
2024-05-09T11:43:36.518Z,1.02
2024-05-09T11:46:06.509Z,0.95
2024-05-09T11:48:36.705Z,1.00
2024-05-09T11:51:04.320Z,1.08
2024-05-09T11:53:34.123Z,1.10
2024-05-09T11:56:01.404Z,1.10
2024-05-09T11:58:34.418Z,1.00
2024-05-09T12:01:02.235Z,0.85
2024-05-09T12:03:34.997Z,1.30
2024-05-09T12:06:02.551Z,1.58
2024-05-09T12:08:32.620Z,0.98
2024-05-09T12:11:00.043Z,1.10
2024-05-09T12:13:30.143Z,1.50
2024-05-09T12:15:57.460Z,1.10
2024-05-09T12:18:27.349Z,1.20
2024-05-09T12:20:57.238Z,1.20
2024-05-09T12:23:27.012Z,1.10
2024-05-09T12:25:54.280Z,1.10
2024-05-09T12:28:24.445Z,0.90
2024-05-09T12:30:52.066Z,1.00
2024-05-09T12:33:22.558Z,1.00
2024-05-09T12:35:51.109Z,1.15
2024-05-09T12:38:24.548Z,1.40
2024-05-09T12:40:51.865Z,1.10
2024-05-09T12:43:21.794Z,1.10
2024-05-09T12:45:49.171Z,1.10
2024-05-09T12:48:19.418Z,1.02
2024-05-09T12:50:46.823Z,0.82
2024-05-09T12:53:16.709Z,1.08
2024-05-09T12:55:53.636Z,1.05
2024-05-09T12:58:27.147Z,0.90
2024-05-09T13:00:54.613Z,0.95
2024-05-09T13:03:24.607Z,1.00
2024-05-09T13:05:52.109Z,1.20
2024-05-09T13:08:22.878Z,1.00
2024-05-09T13:10:52.869Z,1.10
2024-05-09T13:13:22.812Z,1.13
2024-05-09T13:15:50.352Z,1.30
2024-05-09T13:18:20.368Z,1.10
2024-05-09T13:20:47.612Z,1.20
2024-05-09T13:23:17.460Z,1.10
2024-05-09T13:25:44.706Z,1.15
2024-05-09T13:28:17.375Z,0.90
2024-05-09T13:30:44.760Z,1.17
2024-05-09T13:33:15.561Z,1.00
2024-05-09T13:35:47.283Z,1.00
2024-05-09T13:38:21.349Z,1.00
2024-05-09T13:40:50.020Z,0.90
2024-05-09T13:43:24.065Z,1.02
2024-05-09T13:45:52.195Z,2.55
2024-05-09T13:48:22.299Z,2.40
2024-05-09T13:50:49.623Z,0.90
2024-05-09T13:53:19.567Z,1.52
2024-05-09T13:55:46.813Z,0.90
2024-05-09T13:58:16.889Z,1.10
2024-05-09T14:00:48.974Z,1.00
2024-05-09T14:03:20.815Z,0.85
2024-05-09T14:05:50.133Z,1.08
2024-05-09T14:08:22.570Z,1.38
2024-05-09T14:10:58.039Z,1.25
2024-05-09T14:13:28.003Z,0.90
2024-05-09T14:15:58.072Z,1.00
2024-05-09T14:18:28.099Z,0.80
2024-05-09T14:20:55.442Z,1.05
2024-05-09T14:23:25.543Z,1.00
2024-05-09T14:25:53.568Z,1.10
2024-05-09T14:28:26.268Z,1.10
2024-05-09T14:30:53.626Z,1.10
2024-05-09T14:33:27.118Z,0.90
2024-05-09T14:38:24.149Z,1.00
2024-05-09T14:40:51.583Z,0.95
2024-05-09T14:43:22.259Z,1.23
2024-05-09T14:45:49.548Z,2.40
2024-05-09T14:48:20.091Z,1.15
2024-05-09T14:50:50.339Z,0.90
2024-05-09T14:53:20.297Z,1.00
2024-05-09T14:55:49.492Z,0.82
2024-05-09T14:58:19.975Z,1.10
2024-05-09T15:00:50.362Z,0.90
2024-05-09T15:03:22.307Z,1.00
2024-05-09T15:05:53.083Z,1.00
2024-05-09T15:08:23.371Z,1.70
2024-05-09T15:10:50.973Z,1.20
2024-05-09T15:13:21.360Z,1.10
2024-05-09T15:15:49.147Z,1.02
2024-05-09T15:18:19.429Z,0.90
2024-05-09T15:20:47.026Z,1.15
2024-05-09T15:23:19.767Z,1.00
2024-05-09T15:25:47.120Z,0.83
2024-05-09T15:28:17.181Z,1.00
2024-05-09T15:30:46.541Z,1.10
2024-05-09T15:33:17.207Z,1.25
2024-05-09T15:35:46.771Z,1.05
2024-05-09T15:38:20.188Z,1.30
2024-05-09T15:40:47.542Z,1.00
2024-05-09T15:43:17.747Z,0.95
2024-05-09T15:45:45.404Z,1.10
2024-05-09T15:48:15.373Z,0.80
2024-05-09T15:50:43.274Z,1.00
2024-05-09T15:53:14.124Z,0.90
2024-05-09T15:55:43.999Z,0.77
2024-05-09T15:58:13.931Z,0.95
2024-05-09T16:00:43.712Z,0.90
2024-05-09T16:03:15.937Z,1.27
2024-05-09T16:05:44.732Z,1.15
2024-05-09T16:08:15.620Z,0.88
2024-05-09T16:10:47.285Z,1.20
2024-05-09T16:13:19.817Z,1.10
2024-05-09T16:15:47.554Z,1.30
2024-05-09T16:18:17.792Z,1.10
2024-05-09T16:20:48.246Z,1.35
2024-05-09T16:23:19.876Z,1.38
2024-05-09T16:25:51.641Z,1.50
2024-05-09T16:28:23.037Z,1.60
2024-05-09T16:30:51.860Z,1.80
2024-05-09T16:33:23.960Z,1.75
2024-05-09T16:35:51.497Z,1.30
2024-05-09T16:38:21.411Z,1.13
2024-05-09T16:40:51.334Z,1.10
2024-05-09T16:43:22.174Z,1.13
2024-05-09T16:45:49.706Z,1.10
2024-05-09T16:48:19.952Z,1.13
2024-05-09T16:50:47.247Z,1.23
2024-05-09T16:53:17.016Z,0.88
2024-05-09T16:55:44.258Z,0.95
2024-05-09T16:58:16.913Z,1.30
2024-05-09T17:00:44.649Z,2.10
2024-05-09T17:03:16.803Z,1.45
2024-05-09T17:05:46.632Z,1.27
2024-05-09T17:08:20.010Z,1.42
2024-05-09T17:10:49.341Z,0.90
2024-05-09T17:13:22.790Z,1.10
2024-05-09T17:15:52.995Z,1.00
2024-05-09T17:18:25.484Z,1.08
2024-05-09T17:20:55.404Z,0.98
2024-05-09T17:23:22.658Z,0.95
2024-05-09T17:25:52.600Z,1.00
2024-05-09T17:28:22.573Z,1.05
2024-05-09T17:30:52.570Z,1.02
2024-05-09T17:33:19.921Z,1.50
2024-05-09T17:35:50.830Z,1.00
2024-05-09T17:38:18.952Z,1.20
2024-05-09T17:40:48.775Z,1.10
2024-05-09T17:43:16.079Z,1.30
2024-05-09T17:45:48.731Z,1.20
2024-05-09T17:48:17.429Z,1.33
2024-05-09T17:50:47.250Z,1.20
2024-05-09T17:53:14.433Z,1.20
2024-05-09T17:55:44.360Z,1.20
2024-05-09T17:58:13.004Z,1.15
2024-05-09T18:00:43.077Z,1.23
2024-05-09T18:03:13.934Z,1.38
2024-05-09T18:05:45.492Z,1.80
2024-05-09T18:08:13.532Z,8.95
2024-05-09T18:10:44.433Z,2.97
2024-05-09T18:13:12.766Z,4.80
2024-05-09T18:15:43.062Z,5.25
2024-05-09T18:18:13.618Z,1.50
2024-05-09T18:20:45.897Z,1.30
2024-05-09T18:23:16.142Z,1.30
2024-05-09T18:25:48.543Z,2.53
2024-05-09T18:28:17.328Z,1.30
2024-05-09T18:30:48.047Z,1.73
2024-05-09T18:33:18.359Z,1.50
2024-05-09T18:35:48.926Z,1.50
2024-05-09T18:38:16.270Z,1.70
2024-05-09T18:40:49.270Z,4.03
2024-05-09T18:43:25.941Z,1.98
2024-05-09T18:46:02.899Z,1.50
2024-05-09T18:48:35.088Z,3.00
2024-05-09T18:51:06.395Z,2.80
2024-05-09T18:53:34.195Z,1.70
2024-05-09T18:56:04.140Z,2.20
2024-05-09T18:58:32.186Z,2.63
2024-05-09T19:01:03.430Z,2.03
2024-05-09T19:03:34.558Z,2.55
2024-05-09T19:06:05.963Z,2.55
2024-05-09T19:08:34.400Z,2.30
2024-05-09T19:11:05.387Z,2.40
2024-05-09T19:13:34.097Z,2.75
2024-05-09T19:16:05.611Z,2.10
2024-05-09T19:18:39.193Z,2.00
2024-05-09T19:21:07.619Z,2.30
2024-05-09T19:23:44.312Z,2.65
2024-05-09T19:26:18.955Z,2.63
2024-05-09T19:28:50.764Z,2.10
2024-05-09T19:31:19.967Z,2.33
2024-05-09T19:33:54.393Z,2.30
2024-05-09T19:36:23.535Z,3.10
2024-05-09T19:38:55.340Z,3.00
2024-05-09T19:41:23.744Z,3.05
2024-05-09T19:43:54.594Z,3.90
2024-05-09T19:46:24.317Z,3.45
2024-05-09T19:48:59.309Z,3.00
2024-05-09T19:51:27.903Z,3.15
2024-05-09T19:53:59.488Z,3.40
2024-05-09T19:56:30.546Z,3.65
2024-05-09T19:59:03.590Z,8.48
2024-05-09T20:01:31.435Z,3.40
2024-05-09T20:04:05.299Z,3.72
2024-05-09T20:09:06.493Z,4.00
2024-05-09T20:11:34.700Z,3.80
2024-05-09T20:14:06.134Z,2.92
2024-05-09T20:16:35.203Z,3.50
2024-05-09T20:19:09.299Z,3.90
2024-05-09T20:21:42.845Z,3.72
2024-05-09T20:24:18.416Z,4.07
2024-05-09T20:26:47.080Z,3.53
2024-05-09T20:29:18.766Z,3.42
2024-05-09T20:31:48.230Z,3.58
2024-05-09T20:34:22.445Z,3.50
2024-05-09T20:36:50.960Z,3.38
2024-05-09T20:39:32.277Z,3.50
2024-05-09T20:42:03.794Z,3.60
2024-05-09T20:44:34.966Z,3.75
2024-05-09T20:47:02.617Z,2.95
2024-05-09T20:49:35.660Z,3.00
2024-05-09T20:52:03.005Z,3.42
2024-05-09T20:54:33.003Z,2.95
2024-05-09T20:57:00.218Z,2.90
2024-05-09T20:59:30.243Z,2.83
2024-05-09T21:01:57.475Z,3.10
2024-05-09T21:04:27.595Z,2.63
2024-05-09T21:06:57.517Z,3.28
2024-05-09T21:09:28.028Z,3.17
2024-05-09T21:11:55.290Z,3.10
2024-05-09T21:14:25.219Z,3.50
2024-05-09T21:16:52.811Z,3.20
2024-05-09T21:19:22.774Z,2.90
2024-05-09T21:21:50.583Z,3.30
2024-05-09T21:24:23.688Z,3.00
2024-05-09T21:26:50.898Z,3.47
2024-05-09T21:29:20.649Z,3.10
2024-05-09T21:31:47.824Z,3.40
2024-05-09T21:34:17.697Z,3.30
2024-05-09T21:36:45.038Z,3.17
2024-05-09T21:39:14.918Z,3.35
2024-05-09T21:41:44.705Z,2.88
2024-05-09T21:44:14.454Z,3.40
2024-05-09T21:46:41.704Z,3.13
2024-05-09T21:49:11.617Z,3.00
2024-05-09T21:51:38.998Z,3.47
2024-05-09T21:54:08.917Z,3.65
2024-05-09T21:56:36.087Z,3.40
2024-05-09T21:59:08.485Z,3.25
2024-05-09T22:01:36.090Z,3.30
2024-05-09T22:04:06.126Z,3.15
2024-05-09T22:06:33.588Z,3.00
2024-05-09T22:09:05.313Z,3.10
2024-05-09T22:11:32.787Z,2.70
2024-05-09T22:14:02.561Z,2.97
2024-05-09T22:16:32.378Z,3.10
2024-05-09T22:19:02.295Z,2.97
2024-05-09T22:21:29.535Z,2.90
2024-05-09T22:23:59.434Z,2.70
2024-05-09T22:26:26.732Z,2.95
2024-05-09T22:28:56.495Z,3.17
2024-05-09T22:31:23.894Z,2.97
2024-05-09T22:33:56.710Z,2.60
2024-05-09T22:36:24.694Z,2.72
2024-05-09T22:38:54.496Z,2.40
2024-05-09T22:41:21.721Z,2.63
2024-05-09T22:43:51.451Z,2.40
2024-05-09T22:46:18.646Z,2.35
2024-05-09T22:48:48.669Z,2.53
2024-05-09T22:51:18.544Z,2.42
2024-05-09T22:53:48.384Z,2.47
2024-05-09T22:56:25.788Z,2.70
2024-05-09T22:58:55.675Z,2.55
2024-05-09T23:01:26.323Z,2.30
2024-05-09T23:03:56.725Z,2.65
2024-05-09T23:06:26.580Z,2.30
2024-05-09T23:08:56.358Z,3.25
2024-05-09T23:11:23.509Z,2.80
2024-05-09T23:13:53.398Z,2.97
2024-05-09T23:16:20.714Z,3.35
2024-05-09T23:18:50.750Z,2.50
2024-05-09T23:21:18.020Z,2.97
2024-05-09T23:23:50.403Z,2.83
2024-05-09T23:26:17.595Z,2.45
2024-05-09T23:28:47.462Z,2.25
2024-05-09T23:31:14.761Z,2.42
2024-05-09T23:33:48.206Z,2.22
2024-05-09T23:36:15.581Z,2.60
2024-05-09T23:38:46.227Z,2.30
2024-05-09T23:41:16.015Z,2.20
2024-05-09T23:43:45.796Z,2.35
2024-05-09T23:46:13.691Z,2.55
2024-05-09T23:48:43.542Z,2.47
2024-05-09T23:51:10.840Z,2.10
2024-05-09T23:53:40.636Z,2.42
2024-05-09T23:56:08.239Z,2.10
2024-05-09T23:58:40.674Z,2.40
